Terminal Aerodrome Forecast
Issued by NWS

Home | Current Version | Previous Version | Text Only | Print | Product List | Glossary On
Versions: 1 2 3 4 5 6 7 8 9 10 11 12 13 14 15 16 17 18 19 20 21 22 23 24 25 26 27 28 29 30 31 32 33 34 35 36 37 38
000
FTUS45 KREV 211126
TAFTRK
TAF
KTRK 211126Z 2112/2212 20019G30KT 3SM -SN OVC010 WS020/25050KT
     FM211600 22016G25KT 1SM -SN SCT005 OVC010
     FM212300 23011KT 2SM -SN SCT008 OVC012
     FM220400 22007KT 4SM -SN BKN012 OVC020
     FM220900 20006KT 6SM -SN SCT015 OVC025=

USA.gov is the U.S. government's official web portal to all federal, state and local government web resources and services.